Time,TemperatureF,DewpointF,PressureIn,WindDirection,WindDirectionDegrees,WindSpeedMPH,WindSpeedGustMPH,Humidity,HourlyPrecipIn,Conditions,Clouds,dailyrainin,SolarRadiationWatts/m^2,SoftwareType,DateUTC
2013-02-18 00:07:00,48.8,18.0,30.00,West,262,0.0,1.0,29,0.00,,,0.00,0,weatherlink.com 1.10,2013-02-18 07:07:00,
2013-02-18 00:22:00,49.3,19.0,30.01,NNE,13,2.0,3.0,30,0.00,,,0.00,0,weatherlink.com 1.10,2013-02-18 07:22:00,
2013-02-18 00:37:00,49.7,18.0,30.01,NNE,21,0.0,2.0,29,0.00,,,0.00,0,weatherlink.com 1.10,2013-02-18 07:37:00,
2013-02-18 00:52:00,49.3,18.0,30.01,NNE,21,0.0,0.0,29,0.00,,,0.00,0,weatherlink.com 1.10,2013-02-18 07:52:00,
2013-02-18 01:07:00,49.1,19.0,30.02,NNE,21,0.0,1.0,30,0.00,,,0.00,0,weatherlink.com 1.10,2013-02-18 08:07:00,
2013-02-18 01:22:00,48.6,19.0,30.02,NNE,21,0.0,1.0,31,0.00,,,0.00,0,weatherlink.com 1.10,2013-02-18 08:22:00,
2013-02-18 01:37:00,47.8,19.0,30.03,NNE,26,0.0,2.0,32,0.00,,,0.00,0,weatherlink.com 1.10,2013-02-18 08:37:00,
2013-02-18 01:52:00,46.9,20.0,30.02,ENE,67,2.0,3.0,34,0.00,,,0.00,0,weatherlink.com 1.10,2013-02-18 08:52:00,
2013-02-18 02:07:00,46.2,20.0,30.03,ENE,74,1.0,2.0,36,0.00,,,0.00,0,weatherlink.com 1.10,2013-02-18 09:07:00,
2013-02-18 02:22:00,45.5,20.0,30.03,East,80,1.0,3.0,36,0.00,,,0.00,0,weatherlink.com 1.10,2013-02-18 09:22:00,
2013-02-18 02:37:00,45.4,20.0,30.03,East,82,0.0,2.0,37,0.00,,,0.00,0,weatherlink.com 1.10,2013-02-18 09:37:00,
2013-02-18 02:52:00,45.8,19.0,30.03,East,82,0.0,1.0,35,0.00,,,0.00,0,weatherlink.com 1.10,2013-02-18 09:52:00,
2013-02-18 03:07:00,45.2,20.0,30.03,East,82,1.0,1.0,37,0.00,,,0.00,0,weatherlink.com 1.10,2013-02-18 10:07:00,
2013-02-18 03:22:00,43.5,21.0,30.03,East,82,0.0,2.0,41,0.00,,,0.00,0,weatherlink.com 1.10,2013-02-18 10:22:00,
2013-02-18 03:37:00,41.7,21.0,30.03,East,83,2.0,2.0,43,0.00,,,0.00,0,weatherlink.com 1.10,2013-02-18 10:37:00,
2013-02-18 03:52:00,42.6,20.0,30.03,East,85,1.0,3.0,41,0.00,,,0.00,0,weatherlink.com 1.10,2013-02-18 10:52:00,
2013-02-18 04:08:00,44.1,21.0,30.03,East,85,0.0,2.0,40,0.00,,,0.00,0,weatherlink.com 1.10,2013-02-18 11:08:00,
2013-02-18 04:22:00,42.8,20.0,30.03,East,85,0.0,1.0,41,0.00,,,0.00,0,weatherlink.com 1.10,2013-02-18 11:22:00,
2013-02-18 04:38:00,42.3,20.0,30.04,East,91,0.0,2.0,41,0.00,,,0.00,0,weatherlink.com 1.10,2013-02-18 11:38:00,
2013-02-18 04:54:00,40.9,20.0,30.05,East,91,0.0,0.0,44,0.00,,,0.00,0,weatherlink.com 1.10,2013-02-18 11:54:00,
2013-02-18 05:07:00,40.2,21.0,30.05,East,91,0.0,0.0,46,0.00,,,0.00,0,weatherlink.com 1.10,2013-02-18 12:07:00,
2013-02-18 05:22:00,40.8,21.0,30.05,East,90,0.0,2.0,46,0.00,,,0.00,0,weatherlink.com 1.10,2013-02-18 12:22:00,
2013-02-18 05:38:00,40.6,21.0,30.05,East,90,0.0,1.0,45,0.00,,,0.00,0,weatherlink.com 1.10,2013-02-18 12:38:00,
2013-02-18 05:53:00,41.1,21.0,30.05,East,90,1.0,2.0,44,0.00,,,0.00,0,weatherlink.com 1.10,2013-02-18 12:53:00,
2013-02-18 06:07:00,41.2,22.0,30.05,East,91,0.0,2.0,46,0.00,,,0.00,0,weatherlink.com 1.10,2013-02-18 13:07:00,
2013-02-18 06:22:00,39.0,21.0,30.06,East,91,1.0,3.0,49,0.00,,,0.00,0,weatherlink.com 1.10,2013-02-18 13:22:00,
2013-02-18 06:37:00,39.0,21.0,30.06,East,92,0.0,2.0,48,0.00,,,0.00,0,weatherlink.com 1.10,2013-02-18 13:37:00,
2013-02-18 06:53:00,40.3,21.0,30.07,East,94,1.0,2.0,46,0.00,,,0.00,0,weatherlink.com 1.10,2013-02-18 13:53:00,
2013-02-18 07:08:00,41.8,21.0,30.08,East,97,3.0,3.0,43,0.00,,,0.00,9,weatherlink.com 1.10,2013-02-18 14:08:00,
2013-02-18 07:23:00,42.6,21.0,30.08,East,97,0.0,2.0,42,0.00,,,0.00,18,weatherlink.com 1.10,2013-02-18 14:23:00,
2013-02-18 07:38:00,40.8,21.0,30.09,ESE,108,0.0,1.0,46,0.00,,,0.00,67,weatherlink.com 1.10,2013-02-18 14:38:00,
2013-02-18 07:53:00,42.3,22.0,30.10,ESE,108,0.0,1.0,45,0.00,,,0.00,128,weatherlink.com 1.10,2013-02-18 14:53:00,
2013-02-18 08:08:00,45.5,22.0,30.10,ESE,108,0.0,0.0,39,0.00,,,0.00,199,weatherlink.com 1.10,2013-02-18 15:08:00,
2013-02-18 08:23:00,48.9,22.0,30.10,ESE,108,0.0,2.0,35,0.00,,,0.00,225,weatherlink.com 1.10,2013-02-18 15:23:00,
2013-02-18 08:38:00,51.5,23.0,30.10,ESE,108,1.0,2.0,33,0.00,,,0.00,135,weatherlink.com 1.10,2013-02-18 15:38:00,
2013-02-18 08:53:00,49.7,21.0,30.10,ESE,108,0.0,2.0,33,0.00,,,0.00,172,weatherlink.com 1.10,2013-02-18 15:53:00,
2013-02-18 09:08:00,50.8,21.0,30.11,ESE,108,0.0,2.0,31,0.00,,,0.00,278,weatherlink.com 1.10,2013-02-18 16:08:00,
2013-02-18 09:23:00,53.4,23.0,30.11,ESE,108,0.0,1.0,30,0.00,,,0.00,329,weatherlink.com 1.10,2013-02-18 16:23:00,
2013-02-18 09:38:00,56.0,21.0,30.10,ESE,108,0.0,1.0,26,0.00,,,0.00,392,weatherlink.com 1.10,2013-02-18 16:38:00,
2013-02-18 09:53:00,58.5,24.0,30.10,South,175,2.0,3.0,26,0.00,,,0.00,490,weatherlink.com 1.10,2013-02-18 16:53:00,
2013-02-18 10:08:00,60.7,21.0,30.10,South,188,0.0,4.0,22,0.00,,,0.00,584,weatherlink.com 1.10,2013-02-18 17:08:00,
2013-02-18 10:23:00,62.0,20.0,30.10,West,268,2.0,4.0,20,0.00,,,0.00,536,weatherlink.com 1.10,2013-02-18 17:23:00,
2013-02-18 10:38:00,63.4,19.0,30.10,West,269,2.0,5.0,18,0.00,,,0.00,584,weatherlink.com 1.10,2013-02-18 17:38:00,
2013-02-18 10:54:00,64.0,18.0,30.10,NW,315,3.0,4.0,17,0.00,,,0.00,628,weatherlink.com 1.10,2013-02-18 17:54:00,
2013-02-18 11:09:00,65.1,18.0,30.10,NNW,339,1.0,6.0,16,0.00,,,0.00,459,weatherlink.com 1.10,2013-02-18 18:09:00,
2013-02-18 11:23:00,65.6,17.0,30.10,NW,315,2.0,5.0,15,0.00,,,0.00,902,weatherlink.com 1.10,2013-02-18 18:23:00,
2013-02-18 11:39:00,66.5,17.0,30.09,WNW,301,4.0,5.0,15,0.00,,,0.00,633,weatherlink.com 1.10,2013-02-18 18:39:00,
2013-02-18 11:54:00,67.7,15.0,30.09,NW,324,3.0,7.0,13,0.00,,,0.00,747,weatherlink.com 1.10,2013-02-18 18:54:00,
2013-02-18 12:09:00,68.9,14.0,30.08,NW,323,3.0,7.0,12,0.00,,,0.00,847,weatherlink.com 1.10,2013-02-18 19:09:00,
2013-02-18 12:24:00,69.4,10.0,30.07,NW,317,2.0,9.0,10,0.00,,,0.00,654,weatherlink.com 1.10,2013-02-18 19:24:00,
2013-02-18 12:39:00,69.7,11.0,30.06,NW,307,3.0,7.0,10,0.00,,,0.00,693,weatherlink.com 1.10,2013-02-18 19:39:00,
2013-02-18 12:54:00,69.7,11.0,30.05,West,281,2.0,4.0,10,0.00,,,0.00,478,weatherlink.com 1.10,2013-02-18 19:54:00,
2013-02-18 13:09:00,68.8,10.0,30.04,NNW,344,2.0,6.0,10,0.00,,,0.00,517,weatherlink.com 1.10,2013-02-18 20:09:00,
2013-02-18 13:24:00,69.4,10.0,30.03,WNW,291,2.0,6.0,10,0.00,,,0.00,399,weatherlink.com 1.10,2013-02-18 20:24:00,
2013-02-18 13:39:00,69.8,11.0,30.02,NNW,327,3.0,7.0,10,0.00,,,0.00,738,weatherlink.com 1.10,2013-02-18 20:39:00,
2013-02-18 13:54:00,70.0,11.0,30.01,East,86,0.0,6.0,10,0.00,,,0.00,659,weatherlink.com 1.10,2013-02-18 20:54:00,
2013-02-18 14:09:00,70.1,11.0,30.00,East,94,2.0,7.0,10,0.00,,,0.00,684,weatherlink.com 1.10,2013-02-18 21:09:00,
2013-02-18 14:24:00,71.7,10.0,30.00,WNW,300,3.0,8.0,9,0.00,,,0.00,733,weatherlink.com 1.10,2013-02-18 21:24:00,
2013-02-18 14:39:00,72.1,10.0,29.99,North,360,1.0,6.0,9,0.00,,,0.00,455,weatherlink.com 1.10,2013-02-18 21:39:00,
2013-02-18 14:54:00,70.7,9.0,29.99,North,360,0.0,3.0,9,0.00,,,0.00,308,weatherlink.com 1.10,2013-02-18 21:54:00,
2013-02-18 15:09:00,70.6,11.0,29.99,NW,304,4.0,8.0,10,0.00,,,0.00,288,weatherlink.com 1.10,2013-02-18 22:09:00,
2013-02-18 15:24:00,69.9,13.0,29.99,North,5,2.0,6.0,11,0.00,,,0.00,323,weatherlink.com 1.10,2013-02-18 22:24:00,
2013-02-18 15:39:00,69.8,11.0,29.99,WSW,251,1.0,5.0,10,0.00,,,0.00,334,weatherlink.com 1.10,2013-02-18 22:39:00,
2013-02-18 15:54:00,69.2,10.0,29.98,WSW,250,1.0,3.0,10,0.00,,,0.00,223,weatherlink.com 1.10,2013-02-18 22:54:00,
2013-02-18 16:24:00,68.5,12.0,29.98,SSE,165,0.0,3.0,11,0.00,,,0.00,142,weatherlink.com 1.10,2013-02-18 23:24:00,
2013-02-18 16:39:00,68.0,11.0,29.98,SSE,165,0.0,3.0,11,0.00,,,0.00,128,weatherlink.com 1.10,2013-02-18 23:39:00,
2013-02-18 16:54:00,67.8,11.0,29.97,SSE,165,1.0,2.0,11,0.00,,,0.00,120,weatherlink.com 1.10,2013-02-18 23:54:00,
2013-02-18 17:09:00,67.4,13.0,29.97,SE,130,1.0,4.0,12,0.00,,,0.00,98,weatherlink.com 1.10,2013-02-19 00:09:00,
2013-02-18 17:25:00,67.1,13.0,29.97,SE,130,0.0,2.0,12,0.00,,,0.00,54,weatherlink.com 1.10,2013-02-19 00:25:00,
2013-02-18 17:43:00,66.5,17.0,29.97,SE,131,0.0,0.0,15,0.00,,,0.00,25,weatherlink.com 1.10,2013-02-19 00:43:00,
2013-02-18 17:54:00,65.6,15.0,29.97,SE,132,0.0,0.0,14,0.00,,,0.00,18,weatherlink.com 1.10,2013-02-19 00:54:00,
2013-02-18 18:09:00,64.6,20.0,29.97,SE,132,0.0,0.0,18,0.00,,,0.00,18,weatherlink.com 1.10,2013-02-19 01:09:00,
2013-02-18 18:24:00,63.1,16.0,29.97,SE,132,0.0,0.0,16,0.00,,,0.00,0,weatherlink.com 1.10,2013-02-19 01:24:00,
2013-02-18 18:39:00,62.0,16.0,29.98,SE,132,0.0,1.0,17,0.00,,,0.00,0,weatherlink.com 1.10,2013-02-19 01:39:00,
2013-02-18 18:54:00,60.2,19.0,29.98,SE,132,1.0,3.0,20,0.00,,,0.00,0,weatherlink.com 1.10,2013-02-19 01:54:00,
2013-02-18 19:09:00,59.4,18.0,29.97,SE,132,1.0,2.0,20,0.00,,,0.00,0,weatherlink.com 1.10,2013-02-19 02:09:00,
2013-02-18 19:24:00,58.6,20.0,29.97,SE,132,1.0,2.0,22,0.00,,,0.00,0,weatherlink.com 1.10,2013-02-19 02:24:00,
2013-02-18 19:39:00,57.5,20.0,29.97,SE,131,1.0,3.0,23,0.00,,,0.00,0,weatherlink.com 1.10,2013-02-19 02:39:00,
2013-02-18 19:54:00,56.8,20.0,29.97,SE,131,2.0,3.0,24,0.00,,,0.00,0,weatherlink.com 1.10,2013-02-19 02:54:00,
2013-02-18 20:09:00,55.8,19.0,29.97,SE,131,1.0,2.0,24,0.00,,,0.00,0,weatherlink.com 1.10,2013-02-19 03:09:00,
2013-02-18 20:24:00,54.5,21.0,29.98,SE,131,0.0,2.0,27,0.00,,,0.00,0,weatherlink.com 1.10,2013-02-19 03:24:00,
2013-02-18 20:39:00,53.7,22.0,29.98,SE,131,0.0,1.0,29,0.00,,,0.00,0,weatherlink.com 1.10,2013-02-19 03:39:00,
2013-02-18 20:54:00,52.5,21.0,29.98,SE,131,1.0,2.0,29,0.00,,,0.00,0,weatherlink.com 1.10,2013-02-19 03:54:00,
2013-02-18 21:09:00,51.3,21.0,29.99,SE,131,0.0,1.0,30,0.00,,,0.00,0,weatherlink.com 1.10,2013-02-19 04:09:00,
2013-02-18 21:24:00,52.4,18.0,29.98,East,91,5.0,5.0,26,0.00,,,0.00,0,weatherlink.com 1.10,2013-02-19 04:24:00,
2013-02-18 21:39:00,52.9,20.0,29.99,East,91,0.0,2.0,27,0.00,,,0.00,0,weatherlink.com 1.10,2013-02-19 04:39:00,
2013-02-18 21:54:00,52.1,20.0,30.00,East,91,0.0,0.0,28,0.00,,,0.00,0,weatherlink.com 1.10,2013-02-19 04:54:00,
2013-02-18 22:09:00,51.6,19.0,30.00,East,91,0.0,1.0,28,0.00,,,0.00,0,weatherlink.com 1.10,2013-02-19 05:09:00,
2013-02-18 22:24:00,51.0,20.0,30.00,East,91,1.0,2.0,30,0.00,,,0.00,0,weatherlink.com 1.10,2013-02-19 05:24:00,
2013-02-18 22:39:00,49.8,20.0,30.00,East,91,0.0,1.0,31,0.00,,,0.00,0,weatherlink.com 1.10,2013-02-19 05:39:00,
2013-02-18 22:54:00,49.2,20.0,30.00,East,91,0.0,2.0,31,0.00,,,0.00,0,weatherlink.com 1.10,2013-02-19 05:54:00,
2013-02-18 23:09:00,48.9,21.0,29.99,East,91,1.0,3.0,33,0.00,,,0.00,0,weatherlink.com 1.10,2013-02-19 06:09:00,
2013-02-18 23:25:00,49.5,21.0,29.99,East,91,0.0,5.0,33,0.00,,,0.00,0,weatherlink.com 1.10,2013-02-19 06:25:00,
2013-02-18 23:39:00,50.7,19.0,29.99,East,91,3.0,3.0,29,0.00,,,0.00,0,weatherlink.com 1.10,2013-02-19 06:39:00,
2013-02-18 23:55:00,52.3,18.0,29.99,East,91,2.0,3.0,26,0.00,,,0.00,0,weatherlink.com 1.10,2013-02-19 06:55:00,